sensor_id;sensor_type;location;lat;lon;timestamp;P1;durP1;ratioP1;P2;durP2;ratioP2
37609;SDS011;23457;51.966;8.230;2022-08-25T00:06:14;3.25;;;1.98;;
37609;SDS011;23457;51.966;8.230;2022-08-25T00:08:41;7.32;;;2.05;;
37609;SDS011;23457;51.966;8.230;2022-08-25T00:11:19;5.78;;;2.50;;
37609;SDS011;23457;51.966;8.230;2022-08-25T00:13:50;5.78;;;2.10;;
37609;SDS011;23457;51.966;8.230;2022-08-25T00:16:19;5.85;;;2.55;;
37609;SDS011;23457;51.966;8.230;2022-08-25T00:18:49;9.05;;;2.90;;
37609;SDS011;23457;51.966;8.230;2022-08-25T00:21:17;6.07;;;2.75;;
37609;SDS011;23457;51.966;8.230;2022-08-25T00:23:44;6.97;;;3.10;;
37609;SDS011;23457;51.966;8.230;2022-08-25T00:26:12;7.22;;;3.20;;
37609;SDS011;23457;51.966;8.230;2022-08-25T00:28:39;8.85;;;3.20;;
37609;SDS011;23457;51.966;8.230;2022-08-25T00:31:05;6.15;;;2.67;;
37609;SDS011;23457;51.966;8.230;2022-08-25T00:33:37;8.70;;;3.00;;
37609;SDS011;23457;51.966;8.230;2022-08-25T00:36:04;8.30;;;3.05;;
37609;SDS011;23457;51.966;8.230;2022-08-25T00:38:32;8.35;;;3.22;;
37609;SDS011;23457;51.966;8.230;2022-08-25T00:40:59;11.27;;;3.13;;
37609;SDS011;23457;51.966;8.230;2022-08-25T00:46:08;8.68;;;2.95;;
37609;SDS011;23457;51.966;8.230;2022-08-25T00:48:35;9.25;;;3.17;;
37609;SDS011;23457;51.966;8.230;2022-08-25T00:51:04;6.57;;;3.55;;
37609;SDS011;23457;51.966;8.230;2022-08-25T00:53:34;5.90;;;2.97;;
37609;SDS011;23457;51.966;8.230;2022-08-25T00:56:01;10.23;;;3.72;;
37609;SDS011;23457;51.966;8.230;2022-08-25T00:58:28;9.88;;;3.42;;
37609;SDS011;23457;51.966;8.230;2022-08-25T01:00:57;7.63;;;3.55;;
37609;SDS011;23457;51.966;8.230;2022-08-25T01:03:25;7.28;;;3.25;;
37609;SDS011;23457;51.966;8.230;2022-08-25T01:06:01;10.70;;;4.03;;
37609;SDS011;23457;51.966;8.230;2022-08-25T01:08:29;9.15;;;3.67;;
37609;SDS011;23457;51.966;8.230;2022-08-25T01:10:58;9.10;;;3.80;;
37609;SDS011;23457;51.966;8.230;2022-08-25T01:13:31;8.20;;;3.55;;
37609;SDS011;23457;51.966;8.230;2022-08-25T01:16:01;7.38;;;3.42;;
37609;SDS011;23457;51.966;8.230;2022-08-25T01:18:30;11.30;;;3.80;;
37609;SDS011;23457;51.966;8.230;2022-08-25T01:21:19;12.70;;;3.88;;
37609;SDS011;23457;51.966;8.230;2022-08-25T01:23:47;9.20;;;3.05;;
37609;SDS011;23457;51.966;8.230;2022-08-25T01:26:19;8.73;;;3.10;;
37609;SDS011;23457;51.966;8.230;2022-08-25T01:28:55;11.90;;;3.20;;
37609;SDS011;23457;51.966;8.230;2022-08-25T01:31:42;10.60;;;3.42;;
37609;SDS011;23457;51.966;8.230;2022-08-25T01:34:10;6.78;;;3.00;;
37609;SDS011;23457;51.966;8.230;2022-08-25T01:36:38;6.13;;;3.30;;
37609;SDS011;23457;51.966;8.230;2022-08-25T01:39:06;7.37;;;2.80;;
37609;SDS011;23457;51.966;8.230;2022-08-25T01:44:00;6.05;;;3.25;;
37609;SDS011;23457;51.966;8.230;2022-08-25T01:46:28;5.43;;;2.80;;
37609;SDS011;23457;51.966;8.230;2022-08-25T01:48:54;5.85;;;2.97;;
37609;SDS011;23457;51.966;8.230;2022-08-25T01:51:23;7.00;;;2.97;;
37609;SDS011;23457;51.966;8.230;2022-08-25T01:53:53;7.50;;;2.95;;
37609;SDS011;23457;51.966;8.230;2022-08-25T01:56:19;6.72;;;3.47;;
37609;SDS011;23457;51.966;8.230;2022-08-25T01:58:47;7.43;;;2.70;;
37609;SDS011;23457;51.966;8.230;2022-08-25T02:01:18;10.25;;;3.13;;
37609;SDS011;23457;51.966;8.230;2022-08-25T02:03:49;5.45;;;2.72;;
37609;SDS011;23457;51.966;8.230;2022-08-25T02:06:19;5.93;;;3.40;;
37609;SDS011;23457;51.966;8.230;2022-08-25T02:08:56;5.82;;;2.50;;
37609;SDS011;23457;51.966;8.230;2022-08-25T02:11:26;7.95;;;2.80;;
37609;SDS011;23457;51.966;8.230;2022-08-25T02:13:54;5.00;;;2.65;;
37609;SDS011;23457;51.966;8.230;2022-08-25T02:16:25;5.85;;;2.40;;
37609;SDS011;23457;51.966;8.230;2022-08-25T02:18:56;7.97;;;2.75;;
37609;SDS011;23457;51.966;8.230;2022-08-25T02:21:23;4.78;;;2.75;;
37609;SDS011;23457;51.966;8.230;2022-08-25T02:23:50;3.40;;;2.35;;
37609;SDS011;23457;51.966;8.230;2022-08-25T02:26:17;3.97;;;2.83;;
37609;SDS011;23457;51.966;8.230;2022-08-25T02:28:45;3.75;;;2.75;;
37609;SDS011;23457;51.966;8.230;2022-08-25T02:31:13;4.53;;;2.70;;
37609;SDS011;23457;51.966;8.230;2022-08-25T02:33:40;3.40;;;2.80;;
37609;SDS011;23457;51.966;8.230;2022-08-25T02:36:07;6.45;;;3.33;;
37609;SDS011;23457;51.966;8.230;2022-08-25T02:38:35;5.15;;;2.90;;
37609;SDS011;23457;51.966;8.230;2022-08-25T02:41:07;5.07;;;2.95;;
37609;SDS011;23457;51.966;8.230;2022-08-25T02:43:38;7.38;;;2.90;;
37609;SDS011;23457;51.966;8.230;2022-08-25T02:46:07;4.55;;;2.70;;
37609;SDS011;23457;51.966;8.230;2022-08-25T02:48:35;5.28;;;2.88;;
37609;SDS011;23457;51.966;8.230;2022-08-25T02:51:02;3.50;;;2.97;;
37609;SDS011;23457;51.966;8.230;2022-08-25T02:53:29;7.00;;;3.17;;
37609;SDS011;23457;51.966;8.230;2022-08-25T02:55:55;3.75;;;2.80;;
37609;SDS011;23457;51.966;8.230;2022-08-25T02:58:22;6.20;;;3.00;;
37609;SDS011;23457;51.966;8.230;2022-08-25T03:00:49;6.88;;;3.38;;
37609;SDS011;23457;51.966;8.230;2022-08-25T03:03:17;5.22;;;3.15;;
37609;SDS011;23457;51.966;8.230;2022-08-25T03:05:44;7.10;;;3.05;;
37609;SDS011;23457;51.966;8.230;2022-08-25T03:08:12;4.30;;;2.78;;
37609;SDS011;23457;51.966;8.230;2022-08-25T03:10:38;7.78;;;3.05;;
37609;SDS011;23457;51.966;8.230;2022-08-25T03:13:05;6.05;;;3.63;;
37609;SDS011;23457;51.966;8.230;2022-08-25T03:15:32;4.35;;;2.95;;
37609;SDS011;23457;51.966;8.230;2022-08-25T03:17:59;3.78;;;2.72;;
37609;SDS011;23457;51.966;8.230;2022-08-25T03:22:55;6.35;;;3.28;;
37609;SDS011;23457;51.966;8.230;2022-08-25T03:25:21;6.10;;;3.08;;
37609;SDS011;23457;51.966;8.230;2022-08-25T03:28:07;11.13;;;3.10;;
37609;SDS011;23457;51.966;8.230;2022-08-25T03:30:33;4.55;;;3.55;;
37609;SDS011;23457;51.966;8.230;2022-08-25T03:33:00;4.78;;;3.08;;
37609;SDS011;23457;51.966;8.230;2022-08-25T03:35:27;5.90;;;3.10;;
37609;SDS011;23457;51.966;8.230;2022-08-25T03:37:56;8.75;;;4.57;;
37609;SDS011;23457;51.966;8.230;2022-08-25T03:40:24;7.57;;;3.30;;
37609;SDS011;23457;51.966;8.230;2022-08-25T03:42:51;3.75;;;2.90;;
37609;SDS011;23457;51.966;8.230;2022-08-25T03:45:20;5.60;;;3.43;;
37609;SDS011;23457;51.966;8.230;2022-08-25T03:47:47;6.13;;;3.17;;
37609;SDS011;23457;51.966;8.230;2022-08-25T03:50:16;7.63;;;4.20;;
37609;SDS011;23457;51.966;8.230;2022-08-25T03:52:49;6.90;;;3.83;;
37609;SDS011;23457;51.966;8.230;2022-08-25T03:55:20;10.57;;;4.28;;
37609;SDS011;23457;51.966;8.230;2022-08-25T03:57:48;10.95;;;4.60;;
37609;SDS011;23457;51.966;8.230;2022-08-25T04:00:16;10.80;;;4.93;;
37609;SDS011;23457;51.966;8.230;2022-08-25T04:02:43;8.50;;;4.65;;
37609;SDS011;23457;51.966;8.230;2022-08-25T04:05:11;8.63;;;4.82;;
37609;SDS011;23457;51.966;8.230;2022-08-25T04:07:41;10.45;;;5.18;;
37609;SDS011;23457;51.966;8.230;2022-08-25T04:10:08;13.15;;;4.65;;
37609;SDS011;23457;51.966;8.230;2022-08-25T04:12:35;8.63;;;4.47;;
37609;SDS011;23457;51.966;8.230;2022-08-25T04:15:03;12.27;;;4.70;;
37609;SDS011;23457;51.966;8.230;2022-08-25T04:17:30;8.00;;;4.63;;
37609;SDS011;23457;51.966;8.230;2022-08-25T04:19:57;7.10;;;3.90;;
37609;SDS011;23457;51.966;8.230;2022-08-25T04:22:24;5.88;;;3.70;;
37609;SDS011;23457;51.966;8.230;2022-08-25T04:24:55;10.93;;;4.22;;
37609;SDS011;23457;51.966;8.230;2022-08-25T04:27:21;9.35;;;4.25;;
37609;SDS011;23457;51.966;8.230;2022-08-25T04:29:48;9.80;;;4.85;;
37609;SDS011;23457;51.966;8.230;2022-08-25T04:32:14;8.43;;;4.70;;
37609;SDS011;23457;51.966;8.230;2022-08-25T04:34:41;8.02;;;4.18;;
37609;SDS011;23457;51.966;8.230;2022-08-25T04:37:08;6.85;;;4.38;;
37609;SDS011;23457;51.966;8.230;2022-08-25T04:39:35;9.23;;;4.38;;
37609;SDS011;23457;51.966;8.230;2022-08-25T04:42:02;7.75;;;4.50;;
37609;SDS011;23457;51.966;8.230;2022-08-25T04:44:29;6.32;;;4.60;;
37609;SDS011;23457;51.966;8.230;2022-08-25T04:46:57;8.00;;;4.68;;
37609;SDS011;23457;51.966;8.230;2022-08-25T04:49:24;10.00;;;4.85;;
37609;SDS011;23457;51.966;8.230;2022-08-25T04:51:50;12.63;;;5.13;;
37609;SDS011;23457;51.966;8.230;2022-08-25T04:54:17;8.50;;;4.78;;
37609;SDS011;23457;51.966;8.230;2022-08-25T04:56:47;9.93;;;5.15;;
37609;SDS011;23457;51.966;8.230;2022-08-25T04:59:24;11.85;;;4.68;;
37609;SDS011;23457;51.966;8.230;2022-08-25T05:01:55;10.70;;;5.18;;
37609;SDS011;23457;51.966;8.230;2022-08-25T05:04:24;7.15;;;4.70;;
37609;SDS011;23457;51.966;8.230;2022-08-25T05:09:20;9.77;;;5.22;;
37609;SDS011;23457;51.966;8.230;2022-08-25T05:11:47;9.35;;;4.90;;
37609;SDS011;23457;51.966;8.230;2022-08-25T05:14:14;7.10;;;4.72;;
37609;SDS011;23457;51.966;8.230;2022-08-25T05:16:43;7.03;;;4.90;;
37609;SDS011;23457;51.966;8.230;2022-08-25T05:19:10;7.97;;;4.93;;
37609;SDS011;23457;51.966;8.230;2022-08-25T05:21:36;8.05;;;5.18;;
37609;SDS011;23457;51.966;8.230;2022-08-25T05:24:03;7.45;;;5.60;;
37609;SDS011;23457;51.966;8.230;2022-08-25T05:26:31;10.95;;;5.55;;
37609;SDS011;23457;51.966;8.230;2022-08-25T05:28:59;10.65;;;5.57;;
37609;SDS011;23457;51.966;8.230;2022-08-25T05:31:27;8.70;;;5.40;;
37609;SDS011;23457;51.966;8.230;2022-08-25T05:33:53;13.02;;;4.88;;
37609;SDS011;23457;51.966;8.230;2022-08-25T05:36:21;7.45;;;4.80;;
37609;SDS011;23457;51.966;8.230;2022-08-25T05:38:49;10.40;;;4.63;;
37609;SDS011;23457;51.966;8.230;2022-08-25T05:41:17;12.43;;;5.20;;
37609;SDS011;23457;51.966;8.230;2022-08-25T05:43:46;7.30;;;4.93;;
37609;SDS011;23457;51.966;8.230;2022-08-25T05:46:15;9.73;;;5.03;;
37609;SDS011;23457;51.966;8.230;2022-08-25T05:48:42;10.33;;;5.53;;
37609;SDS011;23457;51.966;8.230;2022-08-25T05:51:09;11.13;;;5.70;;
37609;SDS011;23457;51.966;8.230;2022-08-25T05:53:38;7.18;;;4.90;;
37609;SDS011;23457;51.966;8.230;2022-08-25T05:56:06;8.75;;;4.57;;
37609;SDS011;23457;51.966;8.230;2022-08-25T05:58:34;9.02;;;4.65;;
37609;SDS011;23457;51.966;8.230;2022-08-25T06:01:01;11.25;;;4.72;;
37609;SDS011;23457;51.966;8.230;2022-08-25T06:03:49;9.50;;;4.40;;
37609;SDS011;23457;51.966;8.230;2022-08-25T06:06:19;13.65;;;4.93;;
37609;SDS011;23457;51.966;8.230;2022-08-25T06:08:46;10.27;;;5.35;;
37609;SDS011;23457;51.966;8.230;2022-08-25T06:11:13;6.88;;;4.90;;
37609;SDS011;23457;51.966;8.230;2022-08-25T06:13:40;7.45;;;4.80;;
37609;SDS011;23457;51.966;8.230;2022-08-25T06:16:07;9.73;;;5.10;;
37609;SDS011;23457;51.966;8.230;2022-08-25T06:18:34;11.85;;;4.88;;
37609;SDS011;23457;51.966;8.230;2022-08-25T06:21:10;11.30;;;5.22;;
37609;SDS011;23457;51.966;8.230;2022-08-25T06:23:38;12.93;;;5.65;;
37609;SDS011;23457;51.966;8.230;2022-08-25T06:26:06;13.95;;;5.47;;
37609;SDS011;23457;51.966;8.230;2022-08-25T06:28:38;11.23;;;4.95;;
37609;SDS011;23457;51.966;8.230;2022-08-25T06:31:05;9.90;;;4.93;;
37609;SDS011;23457;51.966;8.230;2022-08-25T06:33:32;11.30;;;5.15;;
37609;SDS011;23457;51.966;8.230;2022-08-25T06:35:58;9.93;;;5.25;;
37609;SDS011;23457;51.966;8.230;2022-08-25T06:38:25;13.68;;;5.63;;
37609;SDS011;23457;51.966;8.230;2022-08-25T06:40:52;10.23;;;5.13;;
37609;SDS011;23457;51.966;8.230;2022-08-25T06:43:19;13.93;;;5.35;;
37609;SDS011;23457;51.966;8.230;2022-08-25T06:45:46;11.57;;;5.80;;
37609;SDS011;23457;51.966;8.230;2022-08-25T06:48:13;10.13;;;5.43;;
37609;SDS011;23457;51.966;8.230;2022-08-25T06:50:41;10.68;;;4.90;;
37609;SDS011;23457;51.966;8.230;2022-08-25T06:53:07;6.55;;;5.07;;
37609;SDS011;23457;51.966;8.230;2022-08-25T06:55:34;11.30;;;5.30;;
37609;SDS011;23457;51.966;8.230;2022-08-25T06:58:01;10.65;;;5.68;;
37609;SDS011;23457;51.966;8.230;2022-08-25T07:00:30;13.23;;;5.53;;
37609;SDS011;23457;51.966;8.230;2022-08-25T07:02:58;9.75;;;5.20;;
37609;SDS011;23457;51.966;8.230;2022-08-25T07:05:27;11.93;;;6.13;;
37609;SDS011;23457;51.966;8.230;2022-08-25T07:08:10;8.50;;;4.95;;
37609;SDS011;23457;51.966;8.230;2022-08-25T07:10:37;15.32;;;5.70;;
37609;SDS011;23457;51.966;8.230;2022-08-25T07:13:04;12.90;;;5.65;;
37609;SDS011;23457;51.966;8.230;2022-08-25T07:15:30;13.18;;;5.75;;
37609;SDS011;23457;51.966;8.230;2022-08-25T07:17:57;11.80;;;5.63;;
37609;SDS011;23457;51.966;8.230;2022-08-25T07:20:24;11.70;;;5.78;;
37609;SDS011;23457;51.966;8.230;2022-08-25T07:22:55;12.52;;;5.95;;
37609;SDS011;23457;51.966;8.230;2022-08-25T07:25:22;10.90;;;6.10;;
37609;SDS011;23457;51.966;8.230;2022-08-25T07:27:49;10.60;;;5.40;;
37609;SDS011;23457;51.966;8.230;2022-08-25T07:30:18;11.15;;;5.50;;
37609;SDS011;23457;51.966;8.230;2022-08-25T07:32:45;9.27;;;5.07;;
37609;SDS011;23457;51.966;8.230;2022-08-25T07:35:20;11.13;;;5.32;;
37609;SDS011;23457;51.966;8.230;2022-08-25T07:37:52;6.30;;;4.93;;
37609;SDS011;23457;51.966;8.230;2022-08-25T07:40:24;7.00;;;5.38;;
37609;SDS011;23457;51.966;8.230;2022-08-25T07:42:54;9.57;;;5.45;;
37609;SDS011;23457;51.966;8.230;2022-08-25T07:45:23;7.28;;;5.47;;
37609;SDS011;23457;51.966;8.230;2022-08-25T07:47:59;10.32;;;5.38;;
37609;SDS011;23457;51.966;8.230;2022-08-25T07:50:29;9.63;;;5.50;;
37609;SDS011;23457;51.966;8.230;2022-08-25T07:52:56;9.73;;;5.38;;
37609;SDS011;23457;51.966;8.230;2022-08-25T07:55:24;10.63;;;5.40;;
37609;SDS011;23457;51.966;8.230;2022-08-25T07:57:53;11.00;;;5.25;;
37609;SDS011;23457;51.966;8.230;2022-08-25T08:00:22;11.65;;;5.53;;
37609;SDS011;23457;51.966;8.230;2022-08-25T08:02:53;7.32;;;5.82;;
37609;SDS011;23457;51.966;8.230;2022-08-25T08:05:20;13.15;;;5.47;;
37609;SDS011;23457;51.966;8.230;2022-08-25T08:07:49;9.98;;;5.50;;
37609;SDS011;23457;51.966;8.230;2022-08-25T08:10:16;10.70;;;5.88;;
37609;SDS011;23457;51.966;8.230;2022-08-25T08:13:03;10.77;;;6.35;;
37609;SDS011;23457;51.966;8.230;2022-08-25T08:15:32;10.38;;;6.53;;
37609;SDS011;23457;51.966;8.230;2022-08-25T08:18:00;11.20;;;6.57;;
37609;SDS011;23457;51.966;8.230;2022-08-25T08:20:28;10.82;;;5.93;;
37609;SDS011;23457;51.966;8.230;2022-08-25T08:23:08;13.80;;;6.00;;
37609;SDS011;23457;51.966;8.230;2022-08-25T08:25:34;13.68;;;6.60;;
37609;SDS011;23457;51.966;8.230;2022-08-25T08:28:03;8.35;;;5.78;;
37609;SDS011;23457;51.966;8.230;2022-08-25T08:33:01;10.27;;;5.72;;
37609;SDS011;23457;51.966;8.230;2022-08-25T08:35:41;10.55;;;6.45;;
37609;SDS011;23457;51.966;8.230;2022-08-25T08:38:08;9.70;;;5.35;;
37609;SDS011;23457;51.966;8.230;2022-08-25T08:55:11;13.55;;;5.93;;
37609;SDS011;23457;51.966;8.230;2022-08-25T08:57:48;12.40;;;6.43;;
37609;SDS011;23457;51.966;8.230;2022-08-25T09:00:19;10.57;;;6.47;;
37609;SDS011;23457;51.966;8.230;2022-08-25T09:02:55;10.88;;;7.00;;
37609;SDS011;23457;51.966;8.230;2022-08-25T09:05:29;13.57;;;6.38;;
37609;SDS011;23457;51.966;8.230;2022-08-25T09:08:09;12.52;;;6.50;;
37609;SDS011;23457;51.966;8.230;2022-08-25T09:11:00;12.35;;;6.53;;
37609;SDS011;23457;51.966;8.230;2022-08-25T09:16:27;8.68;;;5.97;;
37609;SDS011;23457;51.966;8.230;2022-08-25T09:22:14;8.82;;;6.43;;
37609;SDS011;23457;51.966;8.230;2022-08-25T09:25:10;13.48;;;6.80;;
37609;SDS011;23457;51.966;8.230;2022-08-25T09:28:20;17.25;;;6.88;;
37609;SDS011;23457;51.966;8.230;2022-08-25T09:30:59;11.50;;;5.93;;
37609;SDS011;23457;51.966;8.230;2022-08-25T09:33:29;10.90;;;6.03;;
37609;SDS011;23457;51.966;8.230;2022-08-25T09:36:00;8.93;;;5.97;;
37609;SDS011;23457;51.966;8.230;2022-08-25T09:38:31;9.93;;;6.07;;
37609;SDS011;23457;51.966;8.230;2022-08-25T09:40:59;9.07;;;6.57;;
37609;SDS011;23457;51.966;8.230;2022-08-25T09:46:01;11.40;;;5.88;;
37609;SDS011;23457;51.966;8.230;2022-08-25T09:48:30;12.75;;;5.75;;
37609;SDS011;23457;51.966;8.230;2022-08-25T09:53:43;9.43;;;6.28;;
37609;SDS011;23457;51.966;8.230;2022-08-25T09:56:18;12.77;;;6.00;;
37609;SDS011;23457;51.966;8.230;2022-08-25T09:58:47;12.05;;;6.40;;
37609;SDS011;23457;51.966;8.230;2022-08-25T10:01:15;7.65;;;5.97;;
37609;SDS011;23457;51.966;8.230;2022-08-25T10:04:01;11.13;;;6.43;;
37609;SDS011;23457;51.966;8.230;2022-08-25T10:06:51;9.75;;;6.40;;
37609;SDS011;23457;51.966;8.230;2022-08-25T10:09:40;9.65;;;6.25;;
37609;SDS011;23457;51.966;8.230;2022-08-25T10:12:19;10.82;;;6.30;;
37609;SDS011;23457;51.966;8.230;2022-08-25T10:14:53;9.85;;;5.95;;
37609;SDS011;23457;51.966;8.230;2022-08-25T10:17:24;10.52;;;6.20;;
37609;SDS011;23457;51.966;8.230;2022-08-25T10:22:37;9.48;;;6.00;;
37609;SDS011;23457;51.966;8.230;2022-08-25T10:25:06;11.60;;;6.50;;
37609;SDS011;23457;51.966;8.230;2022-08-25T10:30:35;8.48;;;6.50;;
37609;SDS011;23457;51.966;8.230;2022-08-25T10:36:17;9.15;;;6.15;;
37609;SDS011;23457;51.966;8.230;2022-08-25T10:38:50;9.32;;;6.25;;
37609;SDS011;23457;51.966;8.230;2022-08-25T10:46:30;14.80;;;6.75;;
37609;SDS011;23457;51.966;8.230;2022-08-25T10:51:49;8.43;;;6.00;;
37609;SDS011;23457;51.966;8.230;2022-08-25T10:59:38;10.18;;;6.55;;
37609;SDS011;23457;51.966;8.230;2022-08-25T11:02:20;14.52;;;6.75;;
37609;SDS011;23457;51.966;8.230;2022-08-25T11:07:51;6.80;;;5.90;;
37609;SDS011;23457;51.966;8.230;2022-08-25T11:10:30;8.63;;;6.47;;
37609;SDS011;23457;51.966;8.230;2022-08-25T11:13:27;10.00;;;5.43;;
37609;SDS011;23457;51.966;8.230;2022-08-25T11:16:08;10.23;;;5.97;;
37609;SDS011;23457;51.966;8.230;2022-08-25T11:18:58;8.25;;;5.63;;
37609;SDS011;23457;51.966;8.230;2022-08-25T11:21:59;11.35;;;6.20;;
37609;SDS011;23457;51.966;8.230;2022-08-25T11:24:39;7.35;;;6.13;;
37609;SDS011;23457;51.966;8.230;2022-08-25T11:27:15;9.00;;;6.32;;
37609;SDS011;23457;51.966;8.230;2022-08-25T11:30:10;8.27;;;5.78;;
37609;SDS011;23457;51.966;8.230;2022-08-25T11:32:43;7.43;;;5.93;;
37609;SDS011;23457;51.966;8.230;2022-08-25T11:35:13;8.02;;;5.80;;
37609;SDS011;23457;51.966;8.230;2022-08-25T11:37:45;8.35;;;5.72;;
37609;SDS011;23457;51.966;8.230;2022-08-25T11:40:41;6.78;;;6.03;;
37609;SDS011;23457;51.966;8.230;2022-08-25T11:44:24;12.40;;;6.05;;
37609;SDS011;23457;51.966;8.230;2022-08-25T11:51:56;12.20;;;6.50;;
37609;SDS011;23457;51.966;8.230;2022-08-25T11:54:29;12.45;;;6.90;;
37609;SDS011;23457;51.966;8.230;2022-08-25T11:57:01;7.93;;;6.20;;
37609;SDS011;23457;51.966;8.230;2022-08-25T12:10:59;11.38;;;5.68;;
37609;SDS011;23457;51.966;8.230;2022-08-25T12:16:03;9.35;;;5.47;;
37609;SDS011;23457;51.966;8.230;2022-08-25T12:23:39;11.85;;;5.20;;
37609;SDS011;23457;51.966;8.230;2022-08-25T12:37:16;7.20;;;5.22;;
37609;SDS011;23457;51.966;8.230;2022-08-25T12:42:21;9.05;;;5.18;;
37609;SDS011;23457;51.966;8.230;2022-08-25T12:47:55;8.73;;;5.05;;
37609;SDS011;23457;51.966;8.230;2022-08-25T13:12:34;9.63;;;5.47;;
37609;SDS011;23457;51.966;8.230;2022-08-25T13:15:13;10.40;;;5.93;;
37609;SDS011;23457;51.966;8.230;2022-08-25T13:17:50;11.50;;;5.43;;
37609;SDS011;23457;51.966;8.230;2022-08-25T13:20:26;8.03;;;5.70;;
37609;SDS011;23457;51.966;8.230;2022-08-25T13:22:56;6.70;;;5.00;;
37609;SDS011;23457;51.966;8.230;2022-08-25T13:25:29;6.97;;;5.07;;
37609;SDS011;23457;51.966;8.230;2022-08-25T13:27:59;11.57;;;5.65;;
37609;SDS011;23457;51.966;8.230;2022-08-25T13:30:30;11.43;;;5.18;;
37609;SDS011;23457;51.966;8.230;2022-08-25T13:32:59;9.43;;;5.07;;
37609;SDS011;23457;51.966;8.230;2022-08-25T13:35:46;8.43;;;5.28;;
37609;SDS011;23457;51.966;8.230;2022-08-25T13:38:17;7.57;;;4.93;;
37609;SDS011;23457;51.966;8.230;2022-08-25T13:40:45;7.88;;;5.35;;
37609;SDS011;23457;51.966;8.230;2022-08-25T13:43:13;8.80;;;5.25;;
37609;SDS011;23457;51.966;8.230;2022-08-25T13:45:41;9.38;;;5.03;;
37609;SDS011;23457;51.966;8.230;2022-08-25T13:48:10;8.52;;;5.32;;
37609;SDS011;23457;51.966;8.230;2022-08-25T13:50:48;6.82;;;4.38;;
37609;SDS011;23457;51.966;8.230;2022-08-25T13:53:22;6.68;;;4.15;;
37609;SDS011;23457;51.966;8.230;2022-08-25T13:55:52;12.27;;;4.82;;
37609;SDS011;23457;51.966;8.230;2022-08-25T13:58:23;8.82;;;5.07;;
37609;SDS011;23457;51.966;8.230;2022-08-25T14:04:23;6.45;;;4.60;;
37609;SDS011;23457;51.966;8.230;2022-08-25T14:09:52;6.45;;;4.75;;
37609;SDS011;23457;51.966;8.230;2022-08-25T14:17:46;6.15;;;4.53;;
37609;SDS011;23457;51.966;8.230;2022-08-25T14:20:26;10.23;;;4.90;;
37609;SDS011;23457;51.966;8.230;2022-08-25T14:25:35;4.95;;;4.45;;
37609;SDS011;23457;51.966;8.230;2022-08-25T14:28:12;13.10;;;5.00;;
37609;SDS011;23457;51.966;8.230;2022-08-25T14:30:48;9.50;;;5.07;;
37609;SDS011;23457;51.966;8.230;2022-08-25T14:33:18;8.35;;;5.30;;
37609;SDS011;23457;51.966;8.230;2022-08-25T14:35:49;14.45;;;5.53;;
37609;SDS011;23457;51.966;8.230;2022-08-25T14:38:19;9.88;;;6.03;;
37609;SDS011;23457;51.966;8.230;2022-08-25T14:40:47;10.52;;;4.82;;
37609;SDS011;23457;51.966;8.230;2022-08-25T14:43:15;12.23;;;6.18;;
37609;SDS011;23457;51.966;8.230;2022-08-25T14:45:43;6.95;;;5.47;;
37609;SDS011;23457;51.966;8.230;2022-08-25T14:48:18;8.15;;;5.45;;
37609;SDS011;23457;51.966;8.230;2022-08-25T14:50:52;10.40;;;5.55;;
37609;SDS011;23457;51.966;8.230;2022-08-25T14:55:47;9.80;;;5.80;;
37609;SDS011;23457;51.966;8.230;2022-08-25T14:58:16;10.50;;;6.47;;
37609;SDS011;23457;51.966;8.230;2022-08-25T15:00:51;8.23;;;4.75;;
37609;SDS011;23457;51.966;8.230;2022-08-25T15:03:28;14.45;;;6.80;;
37609;SDS011;23457;51.966;8.230;2022-08-25T15:05:57;11.20;;;5.75;;
37609;SDS011;23457;51.966;8.230;2022-08-25T15:08:29;6.70;;;5.60;;
37609;SDS011;23457;51.966;8.230;2022-08-25T15:11:15;10.52;;;5.38;;
37609;SDS011;23457;51.966;8.230;2022-08-25T15:13:42;6.07;;;5.10;;
37609;SDS011;23457;51.966;8.230;2022-08-25T15:16:37;6.93;;;4.70;;
37609;SDS011;23457;51.966;8.230;2022-08-25T15:19:04;7.82;;;4.93;;
37609;SDS011;23457;51.966;8.230;2022-08-25T15:21:33;10.55;;;5.47;;
37609;SDS011;23457;51.966;8.230;2022-08-25T15:24:01;9.85;;;5.25;;
37609;SDS011;23457;51.966;8.230;2022-08-25T15:26:28;6.63;;;4.50;;
37609;SDS011;23457;51.966;8.230;2022-08-25T15:28:57;7.88;;;5.15;;
37609;SDS011;23457;51.966;8.230;2022-08-25T15:31:24;7.32;;;5.03;;
37609;SDS011;23457;51.966;8.230;2022-08-25T15:33:52;8.60;;;5.13;;
37609;SDS011;23457;51.966;8.230;2022-08-25T15:36:20;7.80;;;5.20;;
37609;SDS011;23457;51.966;8.230;2022-08-25T15:38:49;9.02;;;5.63;;
37609;SDS011;23457;51.966;8.230;2022-08-25T15:41:16;11.52;;;5.43;;
37609;SDS011;23457;51.966;8.230;2022-08-25T15:43:43;7.72;;;5.55;;
37609;SDS011;23457;51.966;8.230;2022-08-25T15:46:10;9.68;;;5.57;;
37609;SDS011;23457;51.966;8.230;2022-08-25T15:48:41;10.10;;;5.32;;
37609;SDS011;23457;51.966;8.230;2022-08-25T15:51:08;8.52;;;5.22;;
37609;SDS011;23457;51.966;8.230;2022-08-25T15:53:35;8.15;;;5.25;;
37609;SDS011;23457;51.966;8.230;2022-08-25T15:56:05;11.52;;;5.40;;
37609;SDS011;23457;51.966;8.230;2022-08-25T15:58:32;7.47;;;5.22;;
37609;SDS011;23457;51.966;8.230;2022-08-25T16:01:00;7.78;;;4.93;;
37609;SDS011;23457;51.966;8.230;2022-08-25T16:03:27;10.02;;;5.00;;
37609;SDS011;23457;51.966;8.230;2022-08-25T16:05:54;12.48;;;5.35;;
37609;SDS011;23457;51.966;8.230;2022-08-25T16:08:21;8.98;;;5.75;;
37609;SDS011;23457;51.966;8.230;2022-08-25T16:10:50;6.45;;;4.90;;
37609;SDS011;23457;51.966;8.230;2022-08-25T16:13:16;8.10;;;5.20;;
37609;SDS011;23457;51.966;8.230;2022-08-25T16:15:47;10.13;;;5.15;;
37609;SDS011;23457;51.966;8.230;2022-08-25T16:18:20;7.47;;;4.82;;
37609;SDS011;23457;51.966;8.230;2022-08-25T16:20:49;6.78;;;4.65;;
37609;SDS011;23457;51.966;8.230;2022-08-25T16:23:19;7.60;;;5.03;;
37609;SDS011;23457;51.966;8.230;2022-08-25T16:25:46;8.68;;;4.75;;
37609;SDS011;23457;51.966;8.230;2022-08-25T16:28:13;5.90;;;4.97;;
37609;SDS011;23457;51.966;8.230;2022-08-25T16:30:46;8.80;;;5.00;;
37609;SDS011;23457;51.966;8.230;2022-08-25T16:33:18;8.90;;;4.82;;
37609;SDS011;23457;51.966;8.230;2022-08-25T16:35:45;10.65;;;4.95;;
37609;SDS011;23457;51.966;8.230;2022-08-25T16:38:14;8.30;;;4.78;;
37609;SDS011;23457;51.966;8.230;2022-08-25T16:40:41;10.82;;;5.10;;
37609;SDS011;23457;51.966;8.230;2022-08-25T16:43:08;8.65;;;4.90;;
37609;SDS011;23457;51.966;8.230;2022-08-25T16:45:35;7.03;;;4.78;;
37609;SDS011;23457;51.966;8.230;2022-08-25T16:48:03;7.25;;;4.90;;
37609;SDS011;23457;51.966;8.230;2022-08-25T16:50:31;8.93;;;4.97;;
37609;SDS011;23457;51.966;8.230;2022-08-25T16:52:59;6.82;;;4.30;;
37609;SDS011;23457;51.966;8.230;2022-08-25T16:55:49;5.90;;;4.68;;
37609;SDS011;23457;51.966;8.230;2022-08-25T16:58:30;7.70;;;4.95;;
37609;SDS011;23457;51.966;8.230;2022-08-25T17:01:08;9.82;;;5.13;;
37609;SDS011;23457;51.966;8.230;2022-08-25T17:03:38;8.77;;;5.15;;
37609;SDS011;23457;51.966;8.230;2022-08-25T17:06:09;6.88;;;5.13;;
37609;SDS011;23457;51.966;8.230;2022-08-25T17:08:40;6.75;;;5.03;;
37609;SDS011;23457;51.966;8.230;2022-08-25T17:11:11;5.95;;;5.07;;
37609;SDS011;23457;51.966;8.230;2022-08-25T17:13:41;9.52;;;4.88;;
37609;SDS011;23457;51.966;8.230;2022-08-25T17:16:11;12.13;;;5.68;;
37609;SDS011;23457;51.966;8.230;2022-08-25T17:21:08;7.38;;;5.50;;
37609;SDS011;23457;51.966;8.230;2022-08-25T17:23:49;11.20;;;5.28;;
37609;SDS011;23457;51.966;8.230;2022-08-25T17:26:16;9.80;;;5.32;;
37609;SDS011;23457;51.966;8.230;2022-08-25T17:28:43;7.22;;;5.40;;
37609;SDS011;23457;51.966;8.230;2022-08-25T17:31:11;9.48;;;5.13;;
37609;SDS011;23457;51.966;8.230;2022-08-25T17:33:39;10.95;;;5.30;;
37609;SDS011;23457;51.966;8.230;2022-08-25T17:36:06;7.93;;;5.13;;